createdAt,value
2022-09-12T00:00:57.764Z,23
2022-09-12T00:01:57.756Z,19
2022-09-12T00:04:57.740Z,29
2022-09-12T00:06:57.739Z,25
2022-09-12T00:09:57.731Z,27
2022-09-12T00:11:57.748Z,32
2022-09-12T00:12:57.735Z,29
2022-09-12T00:15:57.730Z,25
2022-09-12T00:16:57.732Z,22
2022-09-12T00:17:57.744Z,29
2022-09-12T00:18:57.731Z,27
2022-09-12T00:21:57.756Z,26
2022-09-12T00:22:57.736Z,34
2022-09-12T00:23:57.728Z,33
2022-09-12T00:25:57.738Z,28
2022-09-12T00:26:58.147Z,25
2022-09-12T00:27:57.746Z,28
2022-09-12T00:30:57.734Z,29
2022-09-12T00:31:57.782Z,31
2022-09-12T00:32:57.738Z,28
2022-09-12T00:36:57.737Z,32
2022-09-12T00:37:58.858Z,32
2022-09-12T00:41:57.748Z,33
2022-09-12T00:42:57.744Z,34
2022-09-12T00:44:57.748Z,38
2022-09-12T00:46:57.746Z,40
2022-09-12T00:47:57.740Z,35
2022-09-12T00:48:57.743Z,34
2022-09-12T00:50:57.748Z,33
2022-09-12T00:52:57.756Z,36
2022-09-12T00:53:57.747Z,30
2022-09-12T00:55:57.750Z,34
2022-09-12T00:57:57.821Z,33
2022-09-12T00:58:57.742Z,29
2022-09-12T01:00:57.878Z,30
2022-09-12T01:02:57.757Z,29
2022-09-12T01:03:57.742Z,34
2022-09-12T01:04:57.759Z,27
2022-09-12T01:05:57.744Z,31
2022-09-12T01:07:57.748Z,32
2022-09-12T01:08:57.747Z,32
2022-09-12T01:09:57.752Z,33
2022-09-12T01:12:57.742Z,32
2022-09-12T01:13:57.751Z,34
2022-09-12T01:15:57.746Z,33
2022-09-12T01:16:57.755Z,38
2022-09-12T01:17:57.746Z,32
2022-09-12T01:18:57.750Z,34
2022-09-12T01:19:57.767Z,32
2022-09-12T01:21:57.761Z,31
2022-09-12T01:24:57.750Z,30
2022-09-12T01:25:57.763Z,38
2022-09-12T01:28:57.779Z,31
2022-09-12T01:29:57.760Z,38
2022-09-12T01:30:57.751Z,31
2022-09-12T01:33:57.746Z,33
2022-09-12T01:35:57.748Z,32
2022-09-12T01:36:57.798Z,35
2022-09-12T01:39:57.775Z,29
2022-09-12T01:40:57.761Z,30
2022-09-12T01:41:57.754Z,30
2022-09-12T01:44:57.755Z,32
2022-09-12T01:45:57.766Z,28
2022-09-12T01:46:57.755Z,30
2022-09-12T01:47:57.760Z,31
2022-09-12T01:49:57.758Z,29
2022-09-12T01:50:57.758Z,28
2022-09-12T01:51:57.763Z,31
2022-09-12T01:52:57.760Z,30
2022-09-12T01:54:57.772Z,30
2022-09-12T01:55:57.758Z,27
2022-09-12T01:56:57.761Z,31
2022-09-12T01:57:57.766Z,30
2022-09-12T02:00:57.810Z,27
2022-09-12T02:01:57.853Z,29
2022-09-12T02:02:57.763Z,30
2022-09-12T02:04:57.774Z,30
2022-09-12T02:05:57.763Z,26
2022-09-12T02:06:57.763Z,31
2022-09-12T02:08:57.780Z,29
2022-09-12T02:10:57.785Z,28
2022-09-12T02:11:57.760Z,28
2022-09-12T02:12:57.768Z,25
2022-09-12T02:13:57.774Z,27
2022-09-12T02:15:57.775Z,29
2022-09-12T02:16:57.762Z,26
2022-09-12T02:17:57.794Z,28
2022-09-12T02:18:57.767Z,28
2022-09-12T02:20:57.767Z,25
2022-09-12T02:21:57.771Z,24
2022-09-12T02:22:57.758Z,27
2022-09-12T02:23:57.973Z,29
2022-09-12T02:25:57.766Z,25
2022-09-12T02:26:57.765Z,26
2022-09-12T02:27:57.793Z,30
2022-09-12T02:28:57.766Z,26
2022-09-12T02:29:57.768Z,28
2022-09-12T02:30:57.848Z,28
2022-09-12T02:31:57.769Z,31
2022-09-12T02:32:57.769Z,27
2022-09-12T02:33:57.763Z,28
2022-09-12T02:36:57.768Z,29
2022-09-12T02:39:57.822Z,28
2022-09-12T02:41:57.766Z,25
2022-09-12T02:42:57.768Z,28
2022-09-12T02:43:57.769Z,29
2022-09-12T02:46:57.773Z,24
2022-09-12T02:47:57.765Z,25
2022-09-12T02:49:57.768Z,28
2022-09-12T02:50:57.771Z,26
2022-09-12T02:52:57.769Z,24
2022-09-12T02:53:57.773Z,26
2022-09-12T02:54:57.778Z,26
2022-09-12T02:55:57.773Z,26
2022-09-12T02:57:57.770Z,28
2022-09-12T02:58:57.776Z,32
2022-09-12T03:00:57.811Z,29
2022-09-12T03:02:57.781Z,32
2022-09-12T03:03:57.777Z,27
2022-09-12T03:04:57.766Z,27
2022-09-12T03:05:57.766Z,32
2022-09-12T03:07:57.778Z,24
2022-09-12T03:08:57.774Z,25
2022-09-12T03:10:57.778Z,29
2022-09-12T03:11:57.780Z,31
2022-09-12T03:12:57.773Z,30
2022-09-12T03:13:57.772Z,27
2022-09-12T03:14:57.768Z,31
2022-09-12T03:15:57.769Z,31
2022-09-12T03:16:57.776Z,34
2022-09-12T03:18:57.800Z,29
2022-09-12T03:20:57.779Z,31
2022-09-12T03:21:57.771Z,30
2022-09-12T03:25:57.778Z,29
2022-09-12T03:26:57.781Z,28
2022-09-12T03:30:57.822Z,24
2022-09-12T03:31:57.783Z,30
2022-09-12T03:33:57.778Z,29
2022-09-12T03:36:57.775Z,33
2022-09-12T03:38:57.774Z,28
2022-09-12T03:40:57.780Z,34
2022-09-12T03:43:57.775Z,29
2022-09-12T03:45:57.806Z,32
2022-09-12T03:46:57.782Z,25
2022-09-12T03:49:57.777Z,23
2022-09-12T03:52:57.813Z,30
2022-09-12T03:54:57.781Z,27
2022-09-12T03:56:57.780Z,24
2022-09-12T03:59:57.787Z,29
2022-09-12T04:00:57.935Z,27
2022-09-12T04:01:57.810Z,27
2022-09-12T04:04:57.781Z,27
2022-09-12T04:06:57.784Z,28
2022-09-12T04:07:57.786Z,22
2022-09-12T04:09:57.842Z,23
2022-09-12T04:10:57.788Z,23
2022-09-12T04:11:57.788Z,23
2022-09-12T04:12:57.800Z,21
2022-09-12T04:14:57.790Z,26
2022-09-12T04:16:57.784Z,23
2022-09-12T04:17:59.622Z,26
2022-09-12T04:18:57.791Z,22
2022-09-12T04:21:57.789Z,23
2022-09-12T04:26:57.816Z,22
2022-09-12T04:35:57.795Z,22
2022-09-12T04:36:57.791Z,24
2022-09-12T04:37:57.816Z,25
2022-09-12T04:40:57.789Z,23
2022-09-12T04:44:57.797Z,24
2022-09-12T04:46:57.789Z,22
2022-09-12T04:47:57.806Z,21
2022-09-12T04:48:57.787Z,21
2022-09-12T04:49:57.793Z,24
2022-09-12T04:51:57.800Z,22
2022-09-12T04:52:57.792Z,22
2022-09-12T04:56:57.804Z,28
2022-09-12T04:58:57.799Z,24
2022-09-12T04:59:57.794Z,23
2022-09-12T05:03:57.799Z,21
2022-09-12T05:04:57.799Z,25
2022-09-12T05:05:57.821Z,27
2022-09-12T05:07:57.813Z,23
2022-09-12T05:09:57.797Z,26
2022-09-12T05:10:57.794Z,22
2022-09-12T05:12:57.802Z,23
2022-09-12T05:14:57.811Z,25
2022-09-12T05:15:57.803Z,24
2022-09-12T05:17:57.803Z,24
2022-09-12T05:18:57.800Z,23
2022-09-12T05:19:57.823Z,23
2022-09-12T05:20:57.798Z,21
2022-09-12T05:25:57.803Z,22
2022-09-12T05:26:57.802Z,25
2022-09-12T05:29:57.800Z,21
2022-09-12T05:30:57.872Z,23
2022-09-12T05:36:57.875Z,23
2022-09-12T05:38:57.807Z,24
2022-09-12T05:39:57.861Z,26
2022-09-12T05:41:57.848Z,25
2022-09-12T05:45:57.874Z,21
2022-09-12T05:50:57.799Z,19
2022-09-12T05:51:57.810Z,25
2022-09-12T05:52:57.813Z,23
2022-09-12T05:55:57.817Z,20
2022-09-12T05:56:57.804Z,22
2022-09-12T05:57:57.813Z,22
2022-09-12T05:59:57.805Z,21
2022-09-12T06:00:57.909Z,23
2022-09-12T06:04:57.810Z,20
2022-09-12T06:05:57.812Z,28
2022-09-12T06:06:57.814Z,27
2022-09-12T06:07:57.849Z,21
2022-09-12T06:08:57.806Z,26
2022-09-12T06:11:01.684Z,24
2022-09-12T06:11:57.808Z,24
2022-09-12T06:12:57.819Z,21
2022-09-12T06:13:57.805Z,23
2022-09-12T06:14:57.813Z,23
2022-09-12T06:15:57.844Z,22
2022-09-12T06:16:57.857Z,23
2022-09-12T06:17:57.808Z,22
2022-09-12T06:18:57.825Z,25
2022-09-12T06:20:57.816Z,23
2022-09-12T06:25:57.820Z,23
2022-09-12T06:26:57.816Z,22
2022-09-12T06:30:57.876Z,21
2022-09-12T06:31:57.814Z,22
2022-09-12T06:37:57.824Z,22
2022-09-12T06:38:57.841Z,28
2022-09-12T06:39:57.862Z,22
2022-09-12T06:40:57.818Z,20
2022-09-12T06:41:57.815Z,25
2022-09-12T06:42:57.820Z,25
2022-09-12T06:43:57.814Z,24
2022-09-12T06:49:57.817Z,23
2022-09-12T06:51:57.825Z,21
2022-09-12T06:52:57.821Z,23
2022-09-12T06:54:57.825Z,24
2022-09-12T06:56:57.821Z,21
2022-09-12T06:57:57.823Z,26
2022-09-12T06:59:57.822Z,24
2022-09-12T07:00:59.143Z,21
2022-09-12T07:02:57.819Z,30
2022-09-12T07:03:57.824Z,22
2022-09-12T07:05:57.832Z,20
2022-09-12T07:07:57.823Z,26
2022-09-12T07:08:57.822Z,23
2022-09-12T07:09:57.853Z,25
2022-09-12T07:10:57.827Z,25
2022-09-12T07:12:57.824Z,22
2022-09-12T07:13:57.835Z,23
2022-09-12T07:15:57.825Z,24
2022-09-12T07:17:57.839Z,24
2022-09-12T07:18:57.852Z,20
2022-09-12T07:20:57.828Z,27
2022-09-12T07:21:58.761Z,24
2022-09-12T07:22:57.829Z,22
2022-09-12T07:24:57.836Z,24
2022-09-12T07:25:57.828Z,25
2022-09-12T07:26:57.838Z,23
2022-09-12T07:29:12.810Z,24
2022-09-12T07:30:58.094Z,22
2022-09-12T07:31:57.828Z,28
2022-09-12T07:32:57.825Z,28
2022-09-12T07:33:57.829Z,24
2022-09-12T07:34:57.831Z,23
2022-09-12T07:35:57.908Z,24
2022-09-12T07:36:57.827Z,26
2022-09-12T07:39:57.887Z,24
2022-09-12T07:41:57.836Z,24
2022-09-12T07:46:57.835Z,20
2022-09-12T07:47:57.830Z,23
2022-09-12T07:51:57.832Z,26
2022-09-12T07:52:57.864Z,29
2022-09-12T07:55:57.833Z,20
2022-09-12T07:56:57.838Z,26
2022-09-12T07:57:57.831Z,22
2022-09-12T07:59:57.887Z,23
2022-09-12T08:01:57.838Z,24
2022-09-12T08:02:57.899Z,22
2022-09-12T08:03:57.847Z,20
2022-09-12T08:04:57.838Z,24
2022-09-12T08:06:57.851Z,24
2022-09-12T08:07:57.937Z,25
2022-09-12T08:08:57.858Z,19
2022-09-12T08:10:57.843Z,20
2022-09-12T08:12:57.838Z,32
2022-09-12T08:13:58.124Z,24
2022-09-12T08:16:57.889Z,21
2022-09-12T08:17:57.849Z,30
2022-09-12T08:18:57.849Z,21
2022-09-12T08:21:57.846Z,23
2022-09-12T08:23:57.841Z,23
2022-09-12T08:26:57.842Z,23
2022-09-12T08:27:57.850Z,23
2022-09-12T08:28:57.889Z,19
2022-09-12T08:31:57.845Z,18
2022-09-12T08:32:57.846Z,22
2022-09-12T08:33:57.848Z,18
2022-09-12T08:36:57.851Z,16
2022-09-12T08:37:57.861Z,16
2022-09-12T08:38:59.939Z,17
2022-09-12T08:41:57.868Z,20
2022-09-12T08:42:57.875Z,13
2022-09-12T08:43:57.880Z,13
2022-09-12T08:44:57.849Z,14
2022-09-12T08:45:57.885Z,16
2022-09-12T08:47:57.854Z,13
2022-09-12T08:48:57.919Z,13
2022-09-12T08:49:57.851Z,14
2022-09-12T08:50:57.856Z,16
2022-09-12T08:51:57.849Z,15
2022-09-12T08:52:57.859Z,17
2022-09-12T08:53:57.848Z,16
2022-09-12T08:56:57.851Z,15
2022-09-12T08:57:57.854Z,13
2022-09-12T08:58:58.856Z,15
2022-09-12T08:59:57.858Z,14
2022-09-12T09:01:57.898Z,17
2022-09-12T09:02:57.932Z,13
2022-09-12T09:06:57.852Z,14
2022-09-12T09:07:57.924Z,16
2022-09-12T09:08:57.858Z,12
2022-09-12T09:10:57.860Z,15
2022-09-12T09:11:57.854Z,12
2022-09-12T09:12:57.854Z,12
2022-09-12T09:14:00.841Z,12
2022-09-12T09:15:57.887Z,14
2022-09-12T09:16:57.864Z,15
2022-09-12T09:17:57.853Z,11
2022-09-12T09:18:57.860Z,13
2022-09-12T09:19:57.888Z,11
2022-09-12T09:20:57.858Z,14
2022-09-12T09:22:57.862Z,11
2022-09-12T09:23:57.862Z,16
2022-09-12T09:25:57.871Z,10
2022-09-12T09:27:57.867Z,10
2022-09-12T09:28:57.862Z,12
2022-09-12T09:30:57.929Z,12
2022-09-12T09:31:57.866Z,10
2022-09-12T09:32:57.859Z,9
2022-09-12T09:33:57.865Z,12
2022-09-12T09:35:57.868Z,9
2022-09-12T09:36:57.905Z,10
2022-09-12T09:38:57.869Z,10
2022-09-12T09:40:57.865Z,11
2022-09-12T09:41:57.935Z,10
2022-09-12T09:42:57.862Z,9
2022-09-12T09:45:57.955Z,9
2022-09-12T09:46:57.866Z,9
2022-09-12T09:50:57.874Z,11
2022-09-12T09:52:00.523Z,9
2022-09-12T09:52:57.878Z,6
2022-09-12T09:55:57.877Z,10
2022-09-12T09:56:57.872Z,9
2022-09-12T09:57:57.873Z,8
2022-09-12T09:59:57.869Z,11
2022-09-12T10:00:57.881Z,8
2022-09-12T10:01:57.881Z,11
2022-09-12T10:02:57.955Z,9
2022-09-12T10:04:57.876Z,11
2022-09-12T10:05:57.878Z,8
2022-09-12T10:06:57.884Z,6
2022-09-12T10:07:57.883Z,10
2022-09-12T10:10:57.875Z,6
2022-09-12T10:11:57.883Z,5
2022-09-12T10:12:57.928Z,6
2022-09-12T10:13:57.887Z,8
2022-09-12T10:15:57.952Z,7
2022-09-12T10:16:57.881Z,6
2022-09-12T10:17:57.879Z,8
2022-09-12T10:20:57.899Z,7
2022-09-12T10:21:57.884Z,8
2022-09-12T10:22:57.884Z,5
2022-09-12T10:24:57.880Z,7
2022-09-12T10:25:57.890Z,7
2022-09-12T10:26:57.887Z,8
2022-09-12T10:27:57.891Z,5
2022-09-12T10:29:57.926Z,6
2022-09-12T10:31:57.885Z,6
2022-09-12T10:32:57.882Z,6
2022-09-12T10:33:57.890Z,5
2022-09-12T10:34:57.887Z,9
2022-09-12T10:37:57.886Z,4
2022-09-12T10:38:57.883Z,6
2022-09-12T10:41:57.885Z,4
2022-09-12T10:42:57.894Z,4
2022-09-12T10:43:57.886Z,2
2022-09-12T10:45:57.933Z,3
2022-09-12T10:46:57.921Z,4
2022-09-12T10:47:57.888Z,4
2022-09-12T10:48:57.892Z,3
2022-09-12T10:50:57.885Z,9
2022-09-12T10:52:57.886Z,7
2022-09-12T10:53:57.889Z,2
2022-09-12T10:54:57.898Z,3
2022-09-12T10:55:57.892Z,2
2022-09-12T10:56:57.901Z,6
2022-09-12T10:57:57.896Z,4
2022-09-12T10:59:57.893Z,7
2022-09-12T11:00:57.893Z,2
2022-09-12T11:01:57.896Z,4
2022-09-12T11:05:57.900Z,5
2022-09-12T11:06:57.896Z,5
2022-09-12T11:10:57.898Z,3
2022-09-12T11:11:57.901Z,4
2022-09-12T11:13:57.895Z,4
2022-09-12T11:15:57.988Z,3
2022-09-12T11:16:57.904Z,5
2022-09-12T11:18:57.926Z,4
2022-09-12T11:19:57.899Z,11
2022-09-12T11:20:57.902Z,6
2022-09-12T11:21:57.896Z,4
2022-09-12T11:22:57.915Z,3
2022-09-12T11:24:57.919Z,3
2022-09-12T11:25:57.906Z,3
2022-09-12T11:26:57.904Z,5
2022-09-12T11:29:57.912Z,3
2022-09-12T11:30:57.941Z,4
2022-09-12T11:31:57.905Z,4
2022-09-12T11:34:57.900Z,4
2022-09-12T11:35:57.902Z,4
2022-09-12T11:36:57.915Z,9
2022-09-12T11:37:57.909Z,3
2022-09-12T11:38:57.908Z,3
2022-09-12T11:39:57.927Z,4
2022-09-12T11:40:57.913Z,2
2022-09-12T11:41:57.915Z,3
2022-09-12T11:42:57.908Z,4
2022-09-12T11:43:58.172Z,5
2022-09-12T11:45:58.008Z,3
2022-09-12T11:46:57.916Z,5
2022-09-12T11:47:57.914Z,3
2022-09-12T11:48:57.937Z,7
2022-09-12T11:50:57.912Z,3
2022-09-12T11:51:57.915Z,5
2022-09-12T11:53:57.920Z,4
2022-09-12T11:55:57.921Z,2
2022-09-12T11:58:57.916Z,4
2022-09-12T12:00:57.939Z,2
2022-09-12T12:01:57.926Z,4
2022-09-12T12:03:58.011Z,6
2022-09-12T12:05:57.918Z,3
2022-09-12T12:06:57.928Z,3
2022-09-12T12:08:57.924Z,4
2022-09-12T12:09:58.249Z,2
2022-09-12T12:10:57.925Z,3
2022-09-12T12:11:57.938Z,3
2022-09-12T12:12:57.977Z,3
2022-09-12T12:13:57.922Z,5
2022-09-12T12:14:57.928Z,5
2022-09-12T12:16:57.925Z,2
2022-09-12T12:17:57.923Z,3
2022-09-12T12:18:57.946Z,9
2022-09-12T12:20:02.146Z,3
2022-09-12T12:21:57.925Z,2
2022-09-12T12:22:57.931Z,2
2022-09-12T12:23:57.930Z,1
2022-09-12T12:26:57.942Z,1
2022-09-12T12:27:57.931Z,2
2022-09-12T12:28:57.930Z,4
2022-09-12T12:31:57.934Z,6
2022-09-12T12:32:57.935Z,3
2022-09-12T12:33:57.930Z,3
2022-09-12T12:37:57.935Z,1
2022-09-12T12:38:57.938Z,5
2022-09-12T12:39:57.974Z,2
2022-09-12T12:40:57.926Z,2
2022-09-12T12:42:57.938Z,3
2022-09-12T12:43:57.939Z,3
2022-09-12T12:45:58.002Z,4
2022-09-12T12:47:57.936Z,5
2022-09-12T12:48:57.936Z,2
2022-09-12T12:50:57.964Z,4
2022-09-12T12:52:57.953Z,2
2022-09-12T12:53:57.940Z,2
2022-09-12T12:54:57.943Z,3
2022-09-12T12:55:57.944Z,3
2022-09-12T12:56:57.939Z,2
2022-09-12T12:58:57.990Z,1
2022-09-12T12:59:57.968Z,2
2022-09-12T13:00:57.954Z,2
2022-09-12T13:01:58.024Z,1
2022-09-12T13:03:57.982Z,5
2022-09-12T13:04:57.961Z,6
2022-09-12T13:06:57.951Z,3
2022-09-12T13:08:57.951Z,5
2022-09-12T13:09:57.945Z,3
2022-09-12T13:10:58.062Z,1
2022-09-12T13:11:57.952Z,2
2022-09-12T13:15:57.971Z,1
2022-09-12T13:16:57.954Z,2
2022-09-12T13:17:57.950Z,3
2022-09-12T13:20:57.966Z,2
2022-09-12T13:21:57.978Z,2
2022-09-12T13:22:58.001Z,2
2022-09-12T13:24:57.951Z,1
2022-09-12T13:26:57.958Z,2
2022-09-12T13:27:57.954Z,3
2022-09-12T13:29:01.363Z,1
2022-09-12T13:31:57.967Z,5
2022-09-12T13:36:57.962Z,4
2022-09-12T13:37:57.962Z,3
2022-09-12T13:42:57.968Z,3
2022-09-12T13:47:58.989Z,2
2022-09-12T13:48:57.979Z,1
2022-09-12T13:51:57.982Z,2
2022-09-12T13:52:57.992Z,2
2022-09-12T13:53:57.963Z,2
2022-09-12T13:56:57.968Z,1
2022-09-12T13:57:57.980Z,2
2022-09-12T13:59:57.969Z,2
2022-09-12T14:00:57.973Z,2
2022-09-12T14:01:58.001Z,2
2022-09-12T14:02:58.009Z,2
2022-09-12T14:04:57.975Z,2
2022-09-12T14:05:57.968Z,2
2022-09-12T14:06:58.001Z,1
2022-09-12T14:07:57.973Z,1
2022-09-12T14:08:57.973Z,5
2022-09-12T14:09:57.976Z,2
2022-09-12T14:10:57.980Z,2
2022-09-12T14:11:57.975Z,3
2022-09-12T14:12:57.977Z,2
2022-09-12T14:13:58.006Z,2
2022-09-12T14:14:57.983Z,1
2022-09-12T14:16:57.977Z,1
2022-09-12T14:17:57.980Z,2
2022-09-12T14:18:57.975Z,2
2022-09-12T14:19:57.978Z,2
2022-09-12T14:20:57.985Z,1
2022-09-12T14:21:57.981Z,3
2022-09-12T14:22:57.982Z,2
2022-09-12T14:24:57.977Z,4
2022-09-12T14:25:58.016Z,3
2022-09-12T14:30:58.049Z,1
2022-09-12T14:31:57.985Z,2
2022-09-12T14:32:57.984Z,3
2022-09-12T14:33:57.987Z,4
2022-09-12T14:34:57.982Z,4
2022-09-12T14:35:57.983Z,1
2022-09-12T14:36:57.981Z,1
2022-09-12T14:37:57.984Z,3
2022-09-12T14:38:57.989Z,2
2022-09-12T14:39:58.075Z,3
2022-09-12T14:40:57.980Z,2
2022-09-12T14:41:57.980Z,3
2022-09-12T14:43:01.078Z,3
2022-09-12T14:43:57.994Z,3
2022-09-12T14:44:57.986Z,2
2022-09-12T14:45:58.050Z,2
2022-09-12T14:46:57.988Z,2
2022-09-12T14:47:57.989Z,2
2022-09-12T14:48:57.992Z,3
2022-09-12T14:49:57.995Z,2
2022-09-12T14:50:57.988Z,3
2022-09-12T14:51:57.991Z,4
2022-09-12T14:52:57.984Z,3
2022-09-12T14:53:57.997Z,7
2022-09-12T14:54:58.014Z,2
2022-09-12T14:55:58.003Z,2
2022-09-12T14:56:58.003Z,4
2022-09-12T14:57:58.020Z,2
2022-09-12T14:59:57.992Z,3
2022-09-12T15:00:58.011Z,6
2022-09-12T15:01:58.064Z,2
2022-09-12T15:02:58.060Z,2
2022-09-12T15:03:58.208Z,2
2022-09-12T15:05:58.000Z,2
2022-09-12T15:06:57.997Z,4
2022-09-12T15:07:58.005Z,2
2022-09-12T15:08:57.999Z,2
2022-09-12T15:09:58.005Z,2
2022-09-12T15:10:57.999Z,2
2022-09-12T15:11:57.999Z,3
2022-09-12T15:12:58.005Z,3
2022-09-12T15:13:58.001Z,2
2022-09-12T15:14:57.999Z,2
2022-09-12T15:15:58.107Z,2
2022-09-12T15:16:58.022Z,1
2022-09-12T15:17:58.005Z,4
2022-09-12T15:18:57.999Z,2
2022-09-12T15:19:58.005Z,2
2022-09-12T15:20:58.018Z,3
2022-09-12T15:21:58.008Z,1
2022-09-12T15:22:57.999Z,2
2022-09-12T15:23:58.004Z,3
2022-09-12T15:24:58.005Z,2
2022-09-12T15:26:58.002Z,2
2022-09-12T15:27:58.008Z,5
2022-09-12T15:28:58.013Z,2
2022-09-12T15:29:58.005Z,2
2022-09-12T15:30:58.070Z,3
2022-09-12T15:31:58.011Z,5
2022-09-12T15:32:58.006Z,5
2022-09-12T15:33:58.073Z,4
2022-09-12T15:34:58.006Z,8
2022-09-12T15:35:58.009Z,3
2022-09-12T15:36:58.005Z,2
2022-09-12T15:37:58.006Z,2
2022-09-12T15:38:58.013Z,3
2022-09-12T15:39:58.050Z,2
2022-09-12T15:40:58.010Z,2
2022-09-12T15:41:58.007Z,2
2022-09-12T15:42:58.008Z,2
2022-09-12T15:43:58.014Z,5
2022-09-12T15:45:02.219Z,1
2022-09-12T15:45:58.055Z,2
2022-09-12T15:47:58.010Z,2
2022-09-12T15:48:58.017Z,2
2022-09-12T15:50:58.019Z,2
2022-09-12T15:51:58.020Z,2
2022-09-12T15:52:58.056Z,4
2022-09-12T15:53:58.017Z,2
2022-09-12T15:54:58.021Z,4
2022-09-12T15:55:58.019Z,4
2022-09-12T15:57:58.042Z,2
2022-09-12T15:58:59.579Z,2
2022-09-12T15:59:58.019Z,2
2022-09-12T16:00:58.025Z,3
2022-09-12T16:01:58.081Z,5
2022-09-12T16:02:58.065Z,3
2022-09-12T16:04:58.021Z,4
2022-09-12T16:05:58.020Z,2
2022-09-12T16:06:58.017Z,2
2022-09-12T16:07:58.021Z,2
2022-09-12T16:08:58.029Z,2
2022-09-12T16:09:58.018Z,2
2022-09-12T16:10:58.018Z,3
2022-09-12T16:11:58.026Z,4
2022-09-12T16:12:58.020Z,2
2022-09-12T16:13:58.033Z,1
2022-09-12T16:14:58.028Z,1
2022-09-12T16:15:58.143Z,2
2022-09-12T16:16:58.027Z,3
2022-09-12T16:17:58.027Z,2
2022-09-12T16:18:58.030Z,3
2022-09-12T16:19:58.028Z,2
2022-09-12T16:20:58.029Z,11
2022-09-12T16:21:58.027Z,3
2022-09-12T16:22:58.028Z,2
2022-09-12T16:23:58.027Z,5
2022-09-12T16:24:58.036Z,2
2022-09-12T16:25:58.026Z,2
2022-09-12T16:27:01.104Z,2
2022-09-12T16:27:58.033Z,1
2022-09-12T16:28:58.058Z,1
2022-09-12T16:29:58.099Z,3
2022-09-12T16:30:58.104Z,2
2022-09-12T16:31:58.038Z,2
2022-09-12T16:33:58.032Z,1
2022-09-12T16:34:58.032Z,3
2022-09-12T16:35:58.037Z,2
2022-09-12T16:36:58.036Z,3
2022-09-12T16:37:58.043Z,2
2022-09-12T16:38:58.041Z,5
2022-09-12T16:39:58.111Z,2
2022-09-12T16:40:58.052Z,5
2022-09-12T16:41:58.041Z,2
2022-09-12T16:42:58.045Z,3
2022-09-12T16:43:58.084Z,2
2022-09-12T16:44:58.045Z,5
2022-09-12T16:45:58.096Z,9
2022-09-12T16:46:58.043Z,2
2022-09-12T16:47:58.046Z,3
2022-09-12T16:48:58.068Z,3
2022-09-12T16:49:58.140Z,2
2022-09-12T16:50:58.037Z,3
2022-09-12T16:51:58.048Z,2
2022-09-12T16:52:58.043Z,5
2022-09-12T16:53:58.099Z,4
2022-09-12T16:54:58.059Z,3
2022-09-12T16:55:58.050Z,5
2022-09-12T16:56:58.058Z,4
2022-09-12T16:57:58.050Z,3
2022-09-12T16:58:58.059Z,2
2022-09-12T16:59:58.073Z,3
2022-09-12T17:00:58.060Z,3
2022-09-12T17:01:58.091Z,3
2022-09-12T17:02:58.110Z,1
2022-09-12T17:03:58.052Z,4
2022-09-12T17:04:58.058Z,3
2022-09-12T17:05:58.054Z,2
2022-09-12T17:06:58.056Z,6
2022-09-12T17:07:58.059Z,5
2022-09-12T17:08:58.067Z,1
2022-09-12T17:09:58.899Z,3
2022-09-12T17:10:58.058Z,3
2022-09-12T17:11:58.061Z,2
2022-09-12T17:12:58.061Z,9
2022-09-12T17:14:06.456Z,3
2022-09-12T17:14:58.055Z,3
2022-09-12T17:16:58.061Z,3
2022-09-12T17:17:58.065Z,4
2022-09-12T17:18:58.065Z,3
2022-09-12T17:19:58.055Z,3
2022-09-12T17:20:58.061Z,2
2022-09-12T17:22:58.108Z,3
2022-09-12T17:23:58.059Z,2
2022-09-12T17:24:58.071Z,6
2022-09-12T17:25:58.060Z,4
2022-09-12T17:26:58.067Z,5
2022-09-12T17:27:58.055Z,3
2022-09-12T17:28:58.057Z,3
2022-09-12T17:29:58.057Z,4
2022-09-12T17:30:58.143Z,3
2022-09-12T17:31:58.064Z,3
2022-09-12T17:32:58.065Z,2
2022-09-12T17:33:58.063Z,4
2022-09-12T17:34:58.102Z,2
2022-09-12T17:35:58.064Z,4
2022-09-12T17:36:58.076Z,2
2022-09-12T17:37:58.064Z,5
2022-09-12T17:38:58.063Z,3
2022-09-12T17:40:59.848Z,3
2022-09-12T17:41:58.064Z,5
2022-09-12T17:42:58.063Z,4
2022-09-12T17:43:58.065Z,2
2022-09-12T17:44:58.069Z,2
2022-09-12T17:45:58.173Z,3
2022-09-12T17:46:58.067Z,2
2022-09-12T17:47:58.073Z,5
2022-09-12T17:48:58.068Z,2
2022-09-12T17:50:14.513Z,2
2022-09-12T17:50:58.068Z,3
2022-09-12T17:51:58.066Z,7
2022-09-12T17:52:58.076Z,4
2022-09-12T17:53:58.072Z,3
2022-09-12T17:54:58.063Z,5
2022-09-12T17:55:58.066Z,4
2022-09-12T17:56:58.067Z,6
2022-09-12T17:57:58.077Z,4
2022-09-12T17:58:58.071Z,5
2022-09-12T17:59:58.068Z,5
2022-09-12T18:00:58.089Z,6
2022-09-12T18:01:58.178Z,4
2022-09-12T18:02:58.089Z,4
2022-09-12T18:04:58.070Z,4
2022-09-12T18:05:58.074Z,4
2022-09-12T18:06:58.102Z,3
2022-09-12T18:07:58.074Z,2
2022-09-12T18:08:58.082Z,2
2022-09-12T18:10:58.076Z,4
2022-09-12T18:11:59.110Z,6
2022-09-12T18:12:58.070Z,4
2022-09-12T18:13:58.126Z,2
2022-09-12T18:14:58.080Z,4
2022-09-12T18:15:58.121Z,4
2022-09-12T18:16:58.073Z,2
2022-09-12T18:17:58.078Z,3
2022-09-12T18:18:58.085Z,3
2022-09-12T18:19:58.080Z,2
2022-09-12T18:20:58.077Z,4
2022-09-12T18:21:58.082Z,8
2022-09-12T18:22:58.079Z,4
2022-09-12T18:23:58.085Z,4
2022-09-12T18:24:58.084Z,6
2022-09-12T18:25:58.092Z,5
2022-09-12T18:26:58.085Z,3
2022-09-12T18:27:58.083Z,6
2022-09-12T18:28:58.076Z,3
2022-09-12T18:30:19.712Z,4
2022-09-12T18:30:58.156Z,5
2022-09-12T18:31:58.086Z,2
2022-09-12T18:32:58.151Z,5
2022-09-12T18:33:58.079Z,5
2022-09-12T18:34:58.085Z,4
2022-09-12T18:35:58.083Z,3
2022-09-12T18:36:58.084Z,3
2022-09-12T18:37:58.081Z,4
2022-09-12T18:38:58.085Z,4
2022-09-12T18:39:58.145Z,2
2022-09-12T18:40:58.172Z,2
2022-09-12T18:41:58.087Z,2
2022-09-12T18:42:58.094Z,2
2022-09-12T18:44:58.094Z,5
2022-09-12T18:45:58.246Z,4
2022-09-12T18:46:58.082Z,4
2022-09-12T18:47:58.090Z,5
2022-09-12T18:48:58.087Z,5
2022-09-12T18:49:58.089Z,3
2022-09-12T18:50:58.087Z,4
2022-09-12T18:51:58.091Z,6
2022-09-12T18:52:59.945Z,4
2022-09-12T18:53:58.084Z,9
2022-09-12T18:54:58.098Z,5
2022-09-12T18:55:58.094Z,4
2022-09-12T18:56:58.085Z,5
2022-09-12T18:57:58.098Z,5
2022-09-12T18:58:58.102Z,7
2022-09-12T18:59:58.094Z,4
2022-09-12T19:00:58.170Z,6
2022-09-12T19:01:58.128Z,4
2022-09-12T19:02:58.098Z,3
2022-09-12T19:03:58.177Z,3
2022-09-12T19:04:58.097Z,4
2022-09-12T19:05:58.090Z,5
2022-09-12T19:06:58.084Z,3
2022-09-12T19:07:58.103Z,7
2022-09-12T19:08:58.093Z,6
2022-09-12T19:10:58.099Z,3
2022-09-12T19:11:58.098Z,4
2022-09-12T19:12:58.093Z,10
2022-09-12T19:13:58.091Z,5
2022-09-12T19:14:58.094Z,6
2022-09-12T19:15:58.147Z,6
2022-09-12T19:16:58.092Z,5
2022-09-12T19:17:58.098Z,7
2022-09-12T19:18:58.095Z,2
2022-09-12T19:19:58.106Z,3
2022-09-12T19:20:58.102Z,4
2022-09-12T19:21:58.095Z,6
2022-09-12T19:22:58.102Z,7
2022-09-12T19:23:58.096Z,4
2022-09-12T19:24:58.094Z,3
2022-09-12T19:25:58.103Z,6
2022-09-12T19:26:58.106Z,6
2022-09-12T19:27:58.098Z,7
2022-09-12T19:28:58.105Z,3
2022-09-12T19:29:58.113Z,4
2022-09-12T19:30:58.127Z,5
2022-09-12T19:31:58.151Z,8
2022-09-12T19:32:58.105Z,6
2022-09-12T19:33:58.117Z,9
2022-09-12T19:34:58.137Z,9
2022-09-12T19:36:58.103Z,7
2022-09-12T19:37:58.109Z,9
2022-09-12T19:38:58.100Z,2
2022-09-12T19:40:58.111Z,5
2022-09-12T19:41:58.129Z,4
2022-09-12T19:42:58.103Z,7
2022-09-12T19:43:58.100Z,3
2022-09-12T19:44:58.108Z,4
2022-09-12T19:45:58.166Z,4
2022-09-12T19:46:58.107Z,4
2022-09-12T19:47:58.109Z,5
2022-09-12T19:48:58.116Z,5
2022-09-12T19:49:58.109Z,5
2022-09-12T19:50:58.112Z,4
2022-09-12T19:51:58.118Z,5
2022-09-12T19:52:58.114Z,6
2022-09-12T19:53:58.112Z,5
2022-09-12T19:54:58.116Z,4
2022-09-12T19:55:58.129Z,3
2022-09-12T19:56:58.110Z,3
2022-09-12T19:57:58.140Z,7
2022-09-12T19:58:58.207Z,3
2022-09-12T19:59:58.120Z,2
2022-09-12T20:00:58.111Z,3
2022-09-12T20:01:58.373Z,5
2022-09-12T20:02:58.129Z,6
2022-09-12T20:03:58.167Z,5
2022-09-12T20:04:58.119Z,4
2022-09-12T20:05:58.141Z,4
2022-09-12T20:06:58.119Z,3
2022-09-12T20:07:58.118Z,4
2022-09-12T20:08:58.184Z,5
2022-09-12T20:09:58.111Z,4
2022-09-12T20:10:58.114Z,7
2022-09-12T20:11:58.117Z,3
2022-09-12T20:12:58.117Z,3
2022-09-12T20:13:58.118Z,7
2022-09-12T20:14:58.117Z,6
2022-09-12T20:15:58.193Z,5
2022-09-12T20:16:58.113Z,4
2022-09-12T20:17:58.122Z,5
2022-09-12T20:18:58.120Z,5
2022-09-12T20:19:58.126Z,6
2022-09-12T20:20:58.118Z,4
2022-09-12T20:21:58.124Z,4
2022-09-12T20:22:58.120Z,3
2022-09-12T20:23:58.117Z,4
2022-09-12T20:24:58.127Z,4
2022-09-12T20:25:58.130Z,3
2022-09-12T20:26:58.120Z,4